sensor_id;sensor_type;location;lat;lon;timestamp;temperature;humidity
33011;DHT22;19370;48.562;9.196;2023-12-28T00:01:27;6.10;99.90
33011;DHT22;19370;48.562;9.196;2023-12-28T00:03:54;5.90;99.90
33011;DHT22;19370;48.562;9.196;2023-12-28T00:06:21;5.70;99.90
33011;DHT22;19370;48.562;9.196;2023-12-28T00:08:55;5.40;99.90
33011;DHT22;19370;48.562;9.196;2023-12-28T00:11:23;5.30;99.90
33011;DHT22;19370;48.562;9.196;2023-12-28T00:13:57;5.10;99.90
33011;DHT22;19370;48.562;9.196;2023-12-28T00:16:30;4.70;99.90
33011;DHT22;19370;48.562;9.196;2023-12-28T00:18:58;4.70;99.90
33011;DHT22;19370;48.562;9.196;2023-12-28T00:21:29;4.70;99.90
33011;DHT22;19370;48.562;9.196;2023-12-28T00:23:56;4.80;99.90
33011;DHT22;19370;48.562;9.196;2023-12-28T00:26:28;5.00;99.90
33011;DHT22;19370;48.562;9.196;2023-12-28T00:28:55;5.10;99.90
33011;DHT22;19370;48.562;9.196;2023-12-28T00:31:24;5.20;99.90
33011;DHT22;19370;48.562;9.196;2023-12-28T00:33:50;5.40;99.90
33011;DHT22;19370;48.562;9.196;2023-12-28T00:36:16;5.60;99.90
33011;DHT22;19370;48.562;9.196;2023-12-28T00:38:47;5.90;99.90
33011;DHT22;19370;48.562;9.196;2023-12-28T00:41:18;6.00;99.90
33011;DHT22;19370;48.562;9.196;2023-12-28T00:44:01;6.00;99.90
33011;DHT22;19370;48.562;9.196;2023-12-28T00:46:29;5.70;99.90
33011;DHT22;19370;48.562;9.196;2023-12-28T00:49:11;5.30;99.90
33011;DHT22;19370;48.562;9.196;2023-12-28T00:51:46;5.10;99.90
33011;DHT22;19370;48.562;9.196;2023-12-28T00:54:19;5.00;99.90
33011;DHT22;19370;48.562;9.196;2023-12-28T00:56:46;5.00;99.90
33011;DHT22;19370;48.562;9.196;2023-12-28T00:59:11;5.10;99.90
33011;DHT22;19370;48.562;9.196;2023-12-28T01:01:37;5.20;99.90
33011;DHT22;19370;48.562;9.196;2023-12-28T01:04:13;5.40;99.90
33011;DHT22;19370;48.562;9.196;2023-12-28T01:06:39;5.50;99.90
33011;DHT22;19370;48.562;9.196;2023-12-28T01:09:06;5.50;99.90
33011;DHT22;19370;48.562;9.196;2023-12-28T01:11:33;5.60;99.90
33011;DHT22;19370;48.562;9.196;2023-12-28T01:13:59;5.60;99.90
33011;DHT22;19370;48.562;9.196;2023-12-28T01:16:24;5.60;99.90
33011;DHT22;19370;48.562;9.196;2023-12-28T01:18:51;5.60;99.90
33011;DHT22;19370;48.562;9.196;2023-12-28T01:21:17;5.60;99.90
33011;DHT22;19370;48.562;9.196;2023-12-28T01:23:44;5.60;99.90
33011;DHT22;19370;48.562;9.196;2023-12-28T01:26:17;5.60;99.90
33011;DHT22;19370;48.562;9.196;2023-12-28T01:28:47;5.60;99.90
33011;DHT22;19370;48.562;9.196;2023-12-28T01:31:13;5.70;99.90
33011;DHT22;19370;48.562;9.196;2023-12-28T01:33:39;5.80;99.90
33011;DHT22;19370;48.562;9.196;2023-12-28T01:36:18;5.80;99.90
33011;DHT22;19370;48.562;9.196;2023-12-28T01:38:45;5.70;99.90
33011;DHT22;19370;48.562;9.196;2023-12-28T01:41:22;5.80;99.90
33011;DHT22;19370;48.562;9.196;2023-12-28T01:43:47;5.70;99.90
33011;DHT22;19370;48.562;9.196;2023-12-28T01:46:16;5.80;99.90
33011;DHT22;19370;48.562;9.196;2023-12-28T01:48:44;5.80;99.90
33011;DHT22;19370;48.562;9.196;2023-12-28T01:51:12;5.90;99.90
33011;DHT22;19370;48.562;9.196;2023-12-28T01:53:38;6.00;99.90
33011;DHT22;19370;48.562;9.196;2023-12-28T01:56:05;6.00;99.90
33011;DHT22;19370;48.562;9.196;2023-12-28T01:58:33;6.20;99.90
33011;DHT22;19370;48.562;9.196;2023-12-28T02:01:01;6.30;99.90
33011;DHT22;19370;48.562;9.196;2023-12-28T02:03:28;6.70;99.90
33011;DHT22;19370;48.562;9.196;2023-12-28T02:05:55;6.70;99.90
33011;DHT22;19370;48.562;9.196;2023-12-28T02:08:23;6.80;99.90
33011;DHT22;19370;48.562;9.196;2023-12-28T02:10:48;6.90;99.90
33011;DHT22;19370;48.562;9.196;2023-12-28T02:13:14;7.10;99.90
33011;DHT22;19370;48.562;9.196;2023-12-28T02:15:40;7.20;99.90
33011;DHT22;19370;48.562;9.196;2023-12-28T02:18:11;7.20;99.90
33011;DHT22;19370;48.562;9.196;2023-12-28T02:20:39;7.30;99.90
33011;DHT22;19370;48.562;9.196;2023-12-28T02:23:05;7.30;99.30
33011;DHT22;19370;48.562;9.196;2023-12-28T02:25:32;7.30;99.70
33011;DHT22;19370;48.562;9.196;2023-12-28T02:27:58;7.40;98.80
33011;DHT22;19370;48.562;9.196;2023-12-28T02:30:24;7.40;98.90
33011;DHT22;19370;48.562;9.196;2023-12-28T02:33:12;7.50;99.90
33011;DHT22;19370;48.562;9.196;2023-12-28T02:36:08;7.50;98.50
33011;DHT22;19370;48.562;9.196;2023-12-28T02:38:37;7.60;97.70
33011;DHT22;19370;48.562;9.196;2023-12-28T05:48:30;8.40;94.00
33011;DHT22;19370;48.562;9.196;2023-12-28T05:51:00;8.50;93.70
33011;DHT22;19370;48.562;9.196;2023-12-28T05:53:26;8.70;93.80
33011;DHT22;19370;48.562;9.196;2023-12-28T05:55:53;8.80;93.70
33011;DHT22;19370;48.562;9.196;2023-12-28T05:58:19;8.70;93.30
33011;DHT22;19370;48.562;9.196;2023-12-28T06:00:44;8.80;93.50
33011;DHT22;19370;48.562;9.196;2023-12-28T06:03:12;8.80;93.20
33011;DHT22;19370;48.562;9.196;2023-12-28T06:05:38;8.90;93.20
33011;DHT22;19370;48.562;9.196;2023-12-28T06:08:04;8.80;93.40
33011;DHT22;19370;48.562;9.196;2023-12-28T06:10:29;8.80;94.10
33011;DHT22;19370;48.562;9.196;2023-12-28T06:12:55;8.80;93.60
33011;DHT22;19370;48.562;9.196;2023-12-28T06:15:21;8.70;93.80
33011;DHT22;19370;48.562;9.196;2023-12-28T06:17:46;8.70;93.40
33011;DHT22;19370;48.562;9.196;2023-12-28T06:20:12;8.60;93.90
33011;DHT22;19370;48.562;9.196;2023-12-28T06:22:38;8.60;93.80
33011;DHT22;19370;48.562;9.196;2023-12-28T06:25:04;8.60;93.90
33011;DHT22;19370;48.562;9.196;2023-12-28T06:27:30;8.60;94.60
33011;DHT22;19370;48.562;9.196;2023-12-28T06:29:55;8.60;94.10
33011;DHT22;19370;48.562;9.196;2023-12-28T06:32:21;8.60;94.60
33011;DHT22;19370;48.562;9.196;2023-12-28T06:34:47;8.60;95.50
33011;DHT22;19370;48.562;9.196;2023-12-28T06:37:13;8.60;95.30
33011;DHT22;19370;48.562;9.196;2023-12-28T06:39:39;8.60;95.20
33011;DHT22;19370;48.562;9.196;2023-12-28T06:42:05;8.60;95.20
33011;DHT22;19370;48.562;9.196;2023-12-28T06:44:31;8.60;95.70
33011;DHT22;19370;48.562;9.196;2023-12-28T06:46:56;8.50;95.50
33011;DHT22;19370;48.562;9.196;2023-12-28T06:49:23;8.60;96.40
33011;DHT22;19370;48.562;9.196;2023-12-28T06:51:49;8.70;96.40
33011;DHT22;19370;48.562;9.196;2023-12-28T06:54:15;8.90;96.40
33011;DHT22;19370;48.562;9.196;2023-12-28T06:56:41;8.90;97.30
33011;DHT22;19370;48.562;9.196;2023-12-28T06:59:07;8.90;96.80
33011;DHT22;19370;48.562;9.196;2023-12-28T07:01:39;8.90;97.10
33011;DHT22;19370;48.562;9.196;2023-12-28T07:04:05;9.00;96.50
33011;DHT22;19370;48.562;9.196;2023-12-28T07:06:30;8.90;96.60
33011;DHT22;19370;48.562;9.196;2023-12-28T07:08:56;8.90;96.60
33011;DHT22;19370;48.562;9.196;2023-12-28T07:11:21;8.90;96.50
33011;DHT22;19370;48.562;9.196;2023-12-28T07:13:48;8.80;96.70
33011;DHT22;19370;48.562;9.196;2023-12-28T07:16:13;8.80;96.70
33011;DHT22;19370;48.562;9.196;2023-12-28T07:18:40;8.80;96.50
33011;DHT22;19370;48.562;9.196;2023-12-28T07:21:06;8.70;97.20
33011;DHT22;19370;48.562;9.196;2023-12-28T07:23:34;8.70;96.90
33011;DHT22;19370;48.562;9.196;2023-12-28T07:26:00;8.70;97.80
33011;DHT22;19370;48.562;9.196;2023-12-28T07:28:26;8.60;97.60
33011;DHT22;19370;48.562;9.196;2023-12-28T07:30:51;8.60;98.10
33011;DHT22;19370;48.562;9.196;2023-12-28T07:33:17;8.60;97.50
33011;DHT22;19370;48.562;9.196;2023-12-28T07:35:42;8.70;97.50
33011;DHT22;19370;48.562;9.196;2023-12-28T07:38:08;8.60;97.60
33011;DHT22;19370;48.562;9.196;2023-12-28T07:40:34;8.60;98.10
33011;DHT22;19370;48.562;9.196;2023-12-28T07:42:59;8.60;97.50
33011;DHT22;19370;48.562;9.196;2023-12-28T07:45:26;8.60;97.60
33011;DHT22;19370;48.562;9.196;2023-12-28T07:47:52;8.50;97.70
33011;DHT22;19370;48.562;9.196;2023-12-28T07:50:18;8.60;98.20
33011;DHT22;19370;48.562;9.196;2023-12-28T07:52:55;8.60;98.90
33011;DHT22;19370;48.562;9.196;2023-12-28T07:55:20;8.70;98.80
33011;DHT22;19370;48.562;9.196;2023-12-28T07:57:46;8.70;99.20
33011;DHT22;19370;48.562;9.196;2023-12-28T08:00:12;8.70;99.20
33011;DHT22;19370;48.562;9.196;2023-12-28T08:02:38;8.80;99.70
33011;DHT22;19370;48.562;9.196;2023-12-28T08:05:04;8.90;99.50
33011;DHT22;19370;48.562;9.196;2023-12-28T08:07:30;8.90;99.40
33011;DHT22;19370;48.562;9.196;2023-12-28T08:09:55;8.90;99.10
33011;DHT22;19370;48.562;9.196;2023-12-28T08:12:21;8.90;99.30
33011;DHT22;19370;48.562;9.196;2023-12-28T08:14:47;8.90;99.70
33011;DHT22;19370;48.562;9.196;2023-12-28T08:17:12;8.90;99.90
33011;DHT22;19370;48.562;9.196;2023-12-28T08:19:38;8.90;99.90
33011;DHT22;19370;48.562;9.196;2023-12-28T08:22:04;8.80;99.90
33011;DHT22;19370;48.562;9.196;2023-12-28T08:24:30;8.80;99.90
33011;DHT22;19370;48.562;9.196;2023-12-28T08:26:55;8.80;99.90
33011;DHT22;19370;48.562;9.196;2023-12-28T08:29:24;8.80;99.90
33011;DHT22;19370;48.562;9.196;2023-12-28T08:31:50;8.80;99.90
33011;DHT22;19370;48.562;9.196;2023-12-28T08:34:16;8.80;99.90
33011;DHT22;19370;48.562;9.196;2023-12-28T08:36:41;8.80;99.90
33011;DHT22;19370;48.562;9.196;2023-12-28T08:39:07;8.70;99.90
33011;DHT22;19370;48.562;9.196;2023-12-28T08:41:32;8.80;99.90
33011;DHT22;19370;48.562;9.196;2023-12-28T08:43:58;8.80;99.90
33011;DHT22;19370;48.562;9.196;2023-12-28T08:46:24;8.80;99.90
33011;DHT22;19370;48.562;9.196;2023-12-28T08:48:50;8.80;99.90
33011;DHT22;19370;48.562;9.196;2023-12-28T08:51:16;8.80;99.90
33011;DHT22;19370;48.562;9.196;2023-12-28T08:53:41;8.80;99.90
33011;DHT22;19370;48.562;9.196;2023-12-28T08:56:17;8.90;99.90
33011;DHT22;19370;48.562;9.196;2023-12-28T08:58:46;8.80;99.90
33011;DHT22;19370;48.562;9.196;2023-12-28T09:01:22;8.80;99.90
33011;DHT22;19370;48.562;9.196;2023-12-28T09:03:52;8.90;99.90
33011;DHT22;19370;48.562;9.196;2023-12-28T09:06:21;8.80;99.90
33011;DHT22;19370;48.562;9.196;2023-12-28T09:08:51;8.80;99.90
33011;DHT22;19370;48.562;9.196;2023-12-28T09:11:18;8.80;99.90
33011;DHT22;19370;48.562;9.196;2023-12-28T09:13:43;8.90;99.90
33011;DHT22;19370;48.562;9.196;2023-12-28T09:16:14;8.90;99.90
33011;DHT22;19370;48.562;9.196;2023-12-28T09:18:40;8.90;99.90
33011;DHT22;19370;48.562;9.196;2023-12-28T09:21:09;9.00;99.90
33011;DHT22;19370;48.562;9.196;2023-12-28T09:23:35;9.00;99.90
33011;DHT22;19370;48.562;9.196;2023-12-28T09:26:04;9.00;99.90
33011;DHT22;19370;48.562;9.196;2023-12-28T09:28:34;9.00;99.90
33011;DHT22;19370;48.562;9.196;2023-12-28T09:31:03;9.00;99.90
33011;DHT22;19370;48.562;9.196;2023-12-28T09:33:29;9.10;99.90
33011;DHT22;19370;48.562;9.196;2023-12-28T09:35:55;9.10;99.90
33011;DHT22;19370;48.562;9.196;2023-12-28T09:38:20;9.10;99.90
33011;DHT22;19370;48.562;9.196;2023-12-28T09:40:47;9.10;99.90
33011;DHT22;19370;48.562;9.196;2023-12-28T09:43:21;9.10;99.90
33011;DHT22;19370;48.562;9.196;2023-12-28T09:45:48;9.10;99.90
33011;DHT22;19370;48.562;9.196;2023-12-28T09:48:17;9.10;99.90
33011;DHT22;19370;48.562;9.196;2023-12-28T09:50:53;9.20;99.90
33011;DHT22;19370;48.562;9.196;2023-12-28T09:53:23;9.30;99.90
33011;DHT22;19370;48.562;9.196;2023-12-28T09:55:49;9.30;99.90
33011;DHT22;19370;48.562;9.196;2023-12-28T09:58:18;9.30;99.90
33011;DHT22;19370;48.562;9.196;2023-12-28T10:00:45;9.40;99.90
33011;DHT22;19370;48.562;9.196;2023-12-28T10:03:15;9.40;99.90
33011;DHT22;19370;48.562;9.196;2023-12-28T10:05:42;9.40;99.90
33011;DHT22;19370;48.562;9.196;2023-12-28T10:08:08;9.40;99.90
33011;DHT22;19370;48.562;9.196;2023-12-28T10:10:36;9.50;99.90
33011;DHT22;19370;48.562;9.196;2023-12-28T10:13:02;9.60;99.90
33011;DHT22;19370;48.562;9.196;2023-12-28T10:15:28;9.70;99.90
33011;DHT22;19370;48.562;9.196;2023-12-28T10:17:53;9.80;99.90
33011;DHT22;19370;48.562;9.196;2023-12-28T10:20:19;9.90;99.90
33011;DHT22;19370;48.562;9.196;2023-12-28T10:22:45;9.90;99.90
33011;DHT22;19370;48.562;9.196;2023-12-28T10:25:11;9.90;99.70
33011;DHT22;19370;48.562;9.196;2023-12-28T10:27:40;9.90;99.90
33011;DHT22;19370;48.562;9.196;2023-12-28T10:30:10;10.00;99.90
33011;DHT22;19370;48.562;9.196;2023-12-28T10:32:40;10.00;99.90
33011;DHT22;19370;48.562;9.196;2023-12-28T10:35:07;10.10;99.90
33011;DHT22;19370;48.562;9.196;2023-12-28T10:37:43;10.10;99.90
33011;DHT22;19370;48.562;9.196;2023-12-28T10:40:20;10.00;99.90
33011;DHT22;19370;48.562;9.196;2023-12-28T10:42:59;9.90;99.90
33011;DHT22;19370;48.562;9.196;2023-12-28T10:45:31;9.90;99.90
33011;DHT22;19370;48.562;9.196;2023-12-28T10:48:05;9.80;99.90
33011;DHT22;19370;48.562;9.196;2023-12-28T10:50:48;9.70;99.90
33011;DHT22;19370;48.562;9.196;2023-12-28T10:53:36;9.60;99.90
33011;DHT22;19370;48.562;9.196;2023-12-28T10:59:03;9.60;99.90
33011;DHT22;19370;48.562;9.196;2023-12-28T11:01:35;9.60;99.90
33011;DHT22;19370;48.562;9.196;2023-12-28T11:04:24;9.70;99.90
33011;DHT22;19370;48.562;9.196;2023-12-28T11:06:53;9.80;99.90
33011;DHT22;19370;48.562;9.196;2023-12-28T11:09:22;9.80;99.90
33011;DHT22;19370;48.562;9.196;2023-12-28T11:11:50;9.80;99.90
33011;DHT22;19370;48.562;9.196;2023-12-28T11:14:17;9.90;99.90
33011;DHT22;19370;48.562;9.196;2023-12-28T11:16:43;10.00;99.90
33011;DHT22;19370;48.562;9.196;2023-12-28T11:19:09;10.00;99.90
33011;DHT22;19370;48.562;9.196;2023-12-28T11:21:47;10.10;99.90
33011;DHT22;19370;48.562;9.196;2023-12-28T11:24:15;10.10;99.90
33011;DHT22;19370;48.562;9.196;2023-12-28T11:26:57;10.10;99.90
33011;DHT22;19370;48.562;9.196;2023-12-28T11:29:24;10.20;99.90
33011;DHT22;19370;48.562;9.196;2023-12-28T11:31:54;10.30;99.90
33011;DHT22;19370;48.562;9.196;2023-12-28T11:34:27;10.40;99.90
33011;DHT22;19370;48.562;9.196;2023-12-28T11:52:06;10.50;99.90
33011;DHT22;19370;48.562;9.196;2023-12-28T11:54:32;10.50;99.90
33011;DHT22;19370;48.562;9.196;2023-12-28T11:57:00;10.50;99.90
33011;DHT22;19370;48.562;9.196;2023-12-28T11:59:25;10.40;99.90
33011;DHT22;19370;48.562;9.196;2023-12-28T12:01:52;10.40;99.90
33011;DHT22;19370;48.562;9.196;2023-12-28T12:04:21;10.50;99.90
33011;DHT22;19370;48.562;9.196;2023-12-28T12:06:48;10.60;99.90
33011;DHT22;19370;48.562;9.196;2023-12-28T12:09:14;10.60;99.90
33011;DHT22;19370;48.562;9.196;2023-12-28T12:11:41;10.70;99.90
33011;DHT22;19370;48.562;9.196;2023-12-28T12:14:11;10.50;99.90
33011;DHT22;19370;48.562;9.196;2023-12-28T12:16:37;10.50;99.90
33011;DHT22;19370;48.562;9.196;2023-12-28T12:19:05;10.50;99.90
33011;DHT22;19370;48.562;9.196;2023-12-28T12:21:34;10.50;99.90
33011;DHT22;19370;48.562;9.196;2023-12-28T12:24:00;10.40;99.90
33011;DHT22;19370;48.562;9.196;2023-12-28T12:26:29;10.40;99.90
33011;DHT22;19370;48.562;9.196;2023-12-28T12:28:56;10.40;99.90
33011;DHT22;19370;48.562;9.196;2023-12-28T12:31:24;10.40;99.90
33011;DHT22;19370;48.562;9.196;2023-12-28T12:33:51;10.40;99.90
33011;DHT22;19370;48.562;9.196;2023-12-28T12:36:17;10.40;99.90
33011;DHT22;19370;48.562;9.196;2023-12-28T12:38:46;10.40;99.90
33011;DHT22;19370;48.562;9.196;2023-12-28T12:41:12;10.40;99.90
33011;DHT22;19370;48.562;9.196;2023-12-28T12:43:39;10.40;99.90
33011;DHT22;19370;48.562;9.196;2023-12-28T12:46:06;10.30;99.90
33011;DHT22;19370;48.562;9.196;2023-12-28T12:48:33;10.30;99.90
33011;DHT22;19370;48.562;9.196;2023-12-28T12:51:02;10.30;99.90
33011;DHT22;19370;48.562;9.196;2023-12-28T12:53:35;10.30;99.90
33011;DHT22;19370;48.562;9.196;2023-12-28T12:56:05;10.30;99.90
33011;DHT22;19370;48.562;9.196;2023-12-28T12:58:31;10.30;99.90
33011;DHT22;19370;48.562;9.196;2023-12-28T13:00:58;10.30;99.90
33011;DHT22;19370;48.562;9.196;2023-12-28T13:03:28;10.20;99.90
33011;DHT22;19370;48.562;9.196;2023-12-28T13:05:56;10.30;99.90
33011;DHT22;19370;48.562;9.196;2023-12-28T13:08:22;10.20;99.90
33011;DHT22;19370;48.562;9.196;2023-12-28T13:10:48;10.20;99.90
33011;DHT22;19370;48.562;9.196;2023-12-28T13:13:15;10.20;99.90
33011;DHT22;19370;48.562;9.196;2023-12-28T13:15:41;10.20;99.90
33011;DHT22;19370;48.562;9.196;2023-12-28T13:18:06;10.20;99.90
33011;DHT22;19370;48.562;9.196;2023-12-28T13:20:32;10.20;99.90
33011;DHT22;19370;48.562;9.196;2023-12-28T13:22:58;10.20;99.90
33011;DHT22;19370;48.562;9.196;2023-12-28T13:25:25;10.10;99.90
33011;DHT22;19370;48.562;9.196;2023-12-28T13:27:51;10.10;99.90
33011;DHT22;19370;48.562;9.196;2023-12-28T13:30:19;10.10;99.90
33011;DHT22;19370;48.562;9.196;2023-12-28T13:32:47;10.10;99.90
33011;DHT22;19370;48.562;9.196;2023-12-28T13:35:23;10.10;99.90
33011;DHT22;19370;48.562;9.196;2023-12-28T13:37:54;10.10;99.90
33011;DHT22;19370;48.562;9.196;2023-12-28T13:40:22;10.00;99.90
33011;DHT22;19370;48.562;9.196;2023-12-28T13:42:48;9.90;99.90
33011;DHT22;19370;48.562;9.196;2023-12-28T13:45:14;9.80;99.90
33011;DHT22;19370;48.562;9.196;2023-12-28T13:47:40;9.80;99.90
33011;DHT22;19370;48.562;9.196;2023-12-28T13:50:06;9.70;99.90
33011;DHT22;19370;48.562;9.196;2023-12-28T13:52:32;9.70;99.90
33011;DHT22;19370;48.562;9.196;2023-12-28T13:54:57;9.60;99.90
33011;DHT22;19370;48.562;9.196;2023-12-28T13:57:23;9.50;99.90
33011;DHT22;19370;48.562;9.196;2023-12-28T13:59:49;9.40;99.90
33011;DHT22;19370;48.562;9.196;2023-12-28T14:02:19;9.40;99.90
33011;DHT22;19370;48.562;9.196;2023-12-28T14:04:47;9.30;99.90
33011;DHT22;19370;48.562;9.196;2023-12-28T14:07:14;9.30;99.90
33011;DHT22;19370;48.562;9.196;2023-12-28T14:09:41;9.30;99.90
33011;DHT22;19370;48.562;9.196;2023-12-28T14:12:07;9.40;99.90
33011;DHT22;19370;48.562;9.196;2023-12-28T14:14:33;9.30;99.90
33011;DHT22;19370;48.562;9.196;2023-12-28T14:16:59;9.20;99.90
33011;DHT22;19370;48.562;9.196;2023-12-28T14:19:25;9.20;99.90
33011;DHT22;19370;48.562;9.196;2023-12-28T14:21:56;9.20;99.90
33011;DHT22;19370;48.562;9.196;2023-12-28T14:24:23;9.30;99.90
33011;DHT22;19370;48.562;9.196;2023-12-28T14:26:53;9.20;99.90
33011;DHT22;19370;48.562;9.196;2023-12-28T14:29:23;9.20;99.90
33011;DHT22;19370;48.562;9.196;2023-12-28T14:31:50;9.20;99.90
33011;DHT22;19370;48.562;9.196;2023-12-28T14:34:22;9.10;99.90
33011;DHT22;19370;48.562;9.196;2023-12-28T14:36:48;9.10;99.90
33011;DHT22;19370;48.562;9.196;2023-12-28T14:39:16;9.10;99.90
33011;DHT22;19370;48.562;9.196;2023-12-28T14:41:56;9.10;99.90
33011;DHT22;19370;48.562;9.196;2023-12-28T14:44:23;9.10;99.90
33011;DHT22;19370;48.562;9.196;2023-12-28T14:46:51;9.10;99.90
33011;DHT22;19370;48.562;9.196;2023-12-28T14:49:19;9.10;99.90
33011;DHT22;19370;48.562;9.196;2023-12-28T14:51:45;9.10;99.90
33011;DHT22;19370;48.562;9.196;2023-12-28T14:54:12;9.10;99.90
33011;DHT22;19370;48.562;9.196;2023-12-28T14:56:39;9.10;99.90
33011;DHT22;19370;48.562;9.196;2023-12-28T14:59:05;9.10;99.90
33011;DHT22;19370;48.562;9.196;2023-12-28T15:01:31;9.00;99.90
33011;DHT22;19370;48.562;9.196;2023-12-28T15:04:03;9.00;99.90
33011;DHT22;19370;48.562;9.196;2023-12-28T15:06:31;9.00;99.90
33011;DHT22;19370;48.562;9.196;2023-12-28T15:08:57;9.00;99.90
33011;DHT22;19370;48.562;9.196;2023-12-28T15:11:24;9.00;99.90
33011;DHT22;19370;48.562;9.196;2023-12-28T15:13:51;8.90;99.90
33011;DHT22;19370;48.562;9.196;2023-12-28T15:16:17;8.90;99.90
33011;DHT22;19370;48.562;9.196;2023-12-28T15:18:45;8.90;99.90
33011;DHT22;19370;48.562;9.196;2023-12-28T15:21:11;8.90;99.90
33011;DHT22;19370;48.562;9.196;2023-12-28T15:23:37;8.80;99.90
33011;DHT22;19370;48.562;9.196;2023-12-28T15:26:07;8.80;99.90
33011;DHT22;19370;48.562;9.196;2023-12-28T15:28:33;8.70;99.90
33011;DHT22;19370;48.562;9.196;2023-12-28T15:30:58;8.70;99.90
33011;DHT22;19370;48.562;9.196;2023-12-28T15:33:24;8.70;99.90
33011;DHT22;19370;48.562;9.196;2023-12-28T15:35:53;8.70;99.90
33011;DHT22;19370;48.562;9.196;2023-12-28T15:38:21;8.60;99.90
33011;DHT22;19370;48.562;9.196;2023-12-28T15:40:53;8.50;99.90
33011;DHT22;19370;48.562;9.196;2023-12-28T15:43:22;8.60;99.90
33011;DHT22;19370;48.562;9.196;2023-12-28T15:45:50;8.50;99.90
33011;DHT22;19370;48.562;9.196;2023-12-28T15:48:16;8.50;99.90
33011;DHT22;19370;48.562;9.196;2023-12-28T15:50:45;8.50;99.90
33011;DHT22;19370;48.562;9.196;2023-12-28T15:53:10;8.50;99.90
33011;DHT22;19370;48.562;9.196;2023-12-28T15:55:46;8.40;99.90
33011;DHT22;19370;48.562;9.196;2023-12-28T15:58:17;8.40;99.90
33011;DHT22;19370;48.562;9.196;2023-12-28T16:00:44;8.30;99.90
33011;DHT22;19370;48.562;9.196;2023-12-28T16:03:12;8.30;99.90
33011;DHT22;19370;48.562;9.196;2023-12-28T16:05:38;8.30;99.90
33011;DHT22;19370;48.562;9.196;2023-12-28T16:08:04;8.30;99.90
33011;DHT22;19370;48.562;9.196;2023-12-28T16:10:31;8.30;99.90
33011;DHT22;19370;48.562;9.196;2023-12-28T16:13:00;8.30;99.90
33011;DHT22;19370;48.562;9.196;2023-12-28T16:15:26;8.40;99.90
33011;DHT22;19370;48.562;9.196;2023-12-28T16:17:53;8.40;99.90
33011;DHT22;19370;48.562;9.196;2023-12-28T16:20:23;8.40;99.90
33011;DHT22;19370;48.562;9.196;2023-12-28T16:22:50;8.40;99.90
33011;DHT22;19370;48.562;9.196;2023-12-28T16:25:17;8.50;99.90
33011;DHT22;19370;48.562;9.196;2023-12-28T16:27:43;8.50;99.90
33011;DHT22;19370;48.562;9.196;2023-12-28T16:44:01;8.50;99.90
33011;DHT22;19370;48.562;9.196;2023-12-28T16:46:55;8.50;99.90
33011;DHT22;19370;48.562;9.196;2023-12-28T16:49:41;8.60;99.90
33011;DHT22;19370;48.562;9.196;2023-12-28T16:52:07;8.60;99.90
33011;DHT22;19370;48.562;9.196;2023-12-28T16:54:47;8.60;99.90
33011;DHT22;19370;48.562;9.196;2023-12-28T16:57:12;8.60;99.90
33011;DHT22;19370;48.562;9.196;2023-12-28T17:06:23;8.70;99.90
33011;DHT22;19370;48.562;9.196;2023-12-28T17:08:57;8.60;99.90
33011;DHT22;19370;48.562;9.196;2023-12-28T17:11:25;8.70;99.90
33011;DHT22;19370;48.562;9.196;2023-12-28T17:13:51;8.60;99.90
33011;DHT22;19370;48.562;9.196;2023-12-28T17:18:53;8.50;99.90
33011;DHT22;19370;48.562;9.196;2023-12-28T17:21:23;8.50;99.90
33011;DHT22;19370;48.562;9.196;2023-12-28T17:41:40;8.40;99.90
33011;DHT22;19370;48.562;9.196;2023-12-28T17:44:27;8.40;99.90
33011;DHT22;19370;48.562;9.196;2023-12-28T17:50:38;8.30;99.90
33011;DHT22;19370;48.562;9.196;2023-12-28T17:53:18;8.40;99.90
33011;DHT22;19370;48.562;9.196;2023-12-28T18:03:43;8.50;99.90
33011;DHT22;19370;48.562;9.196;2023-12-28T18:06:11;8.40;99.90
33011;DHT22;19370;48.562;9.196;2023-12-28T18:08:40;8.40;99.90
33011;DHT22;19370;48.562;9.196;2023-12-28T18:11:07;8.40;99.90
33011;DHT22;19370;48.562;9.196;2023-12-28T18:13:35;8.40;99.90
33011;DHT22;19370;48.562;9.196;2023-12-28T18:16:01;8.50;99.90
33011;DHT22;19370;48.562;9.196;2023-12-28T18:18:26;8.40;99.90
33011;DHT22;19370;48.562;9.196;2023-12-28T18:20:52;8.40;99.90
33011;DHT22;19370;48.562;9.196;2023-12-28T18:23:18;8.40;99.90
33011;DHT22;19370;48.562;9.196;2023-12-28T18:25:46;8.50;99.90
33011;DHT22;19370;48.562;9.196;2023-12-28T18:28:12;8.40;99.90
33011;DHT22;19370;48.562;9.196;2023-12-28T18:30:38;8.40;99.90
33011;DHT22;19370;48.562;9.196;2023-12-28T18:33:04;8.40;99.90
33011;DHT22;19370;48.562;9.196;2023-12-28T18:35:29;8.50;99.90
33011;DHT22;19370;48.562;9.196;2023-12-28T18:37:55;8.40;99.90
33011;DHT22;19370;48.562;9.196;2023-12-28T18:40:21;8.40;99.90
33011;DHT22;19370;48.562;9.196;2023-12-28T18:42:48;8.40;99.90
33011;DHT22;19370;48.562;9.196;2023-12-28T18:45:14;8.40;99.90
33011;DHT22;19370;48.562;9.196;2023-12-28T18:47:40;8.40;99.90
33011;DHT22;19370;48.562;9.196;2023-12-28T18:50:07;8.40;99.90
33011;DHT22;19370;48.562;9.196;2023-12-28T18:52:33;8.40;99.90
33011;DHT22;19370;48.562;9.196;2023-12-28T18:54:59;8.40;99.90
33011;DHT22;19370;48.562;9.196;2023-12-28T18:57:26;8.40;99.90
33011;DHT22;19370;48.562;9.196;2023-12-28T18:59:52;8.40;99.90
33011;DHT22;19370;48.562;9.196;2023-12-28T19:02:17;8.40;99.90
33011;DHT22;19370;48.562;9.196;2023-12-28T19:04:43;8.40;99.90
33011;DHT22;19370;48.562;9.196;2023-12-28T19:07:15;8.30;99.90
33011;DHT22;19370;48.562;9.196;2023-12-28T19:39:40;8.20;99.90
33011;DHT22;19370;48.562;9.196;2023-12-28T19:42:10;8.10;99.90
33011;DHT22;19370;48.562;9.196;2023-12-28T19:44:37;8.10;99.90
33011;DHT22;19370;48.562;9.196;2023-12-28T19:47:03;8.10;99.90
33011;DHT22;19370;48.562;9.196;2023-12-28T19:49:29;8.10;99.90
33011;DHT22;19370;48.562;9.196;2023-12-28T19:51:55;8.10;99.90
33011;DHT22;19370;48.562;9.196;2023-12-28T19:54:21;8.20;99.90
33011;DHT22;19370;48.562;9.196;2023-12-28T19:56:46;8.10;99.90
33011;DHT22;19370;48.562;9.196;2023-12-28T19:59:13;8.10;99.90
33011;DHT22;19370;48.562;9.196;2023-12-28T20:01:48;8.10;99.90
33011;DHT22;19370;48.562;9.196;2023-12-28T20:04:14;8.10;99.90
33011;DHT22;19370;48.562;9.196;2023-12-28T20:06:45;8.20;99.90
33011;DHT22;19370;48.562;9.196;2023-12-28T20:09:11;8.20;99.90
33011;DHT22;19370;48.562;9.196;2023-12-28T20:11:40;8.20;99.90
33011;DHT22;19370;48.562;9.196;2023-12-28T20:14:07;8.30;99.90
33011;DHT22;19370;48.562;9.196;2023-12-28T20:16:35;8.30;99.90
33011;DHT22;19370;48.562;9.196;2023-12-28T20:19:01;8.30;99.90
33011;DHT22;19370;48.562;9.196;2023-12-28T20:21:27;8.30;99.90
33011;DHT22;19370;48.562;9.196;2023-12-28T20:23:53;8.30;99.90
33011;DHT22;19370;48.562;9.196;2023-12-28T20:26:20;8.40;99.90
33011;DHT22;19370;48.562;9.196;2023-12-28T20:28:47;8.30;99.90
33011;DHT22;19370;48.562;9.196;2023-12-28T20:31:18;8.40;99.90
33011;DHT22;19370;48.562;9.196;2023-12-28T20:33:47;8.30;99.90
33011;DHT22;19370;48.562;9.196;2023-12-28T20:36:15;8.30;99.90
33011;DHT22;19370;48.562;9.196;2023-12-28T20:38:41;8.30;99.90